createdAt,value
2018-10-21T00:00:01.748Z,95.48
2018-10-21T00:15:02.130Z,96.06
2018-10-21T00:20:01.798Z,96.06
2018-10-21T00:25:01.657Z,96.79
2018-10-21T00:30:06.749Z,96.79
2018-10-21T00:35:01.667Z,97.43
2018-10-21T00:40:01.804Z,97.43
2018-10-21T00:45:01.908Z,97.57
2018-10-21T00:50:01.733Z,97.57
2018-10-21T00:55:01.923Z,97.14
2018-10-21T01:00:01.749Z,97.14
2018-10-21T01:05:01.752Z,97.09
2018-10-21T01:15:01.878Z,96.26
2018-10-21T01:25:01.794Z,96.06
2018-10-21T01:30:01.825Z,96.06
2018-10-21T01:40:01.739Z,96.37
2018-10-21T01:45:02.001Z,96.40
2018-10-21T01:50:01.751Z,96.40
2018-10-21T01:55:01.662Z,95.57
2018-10-21T02:00:01.939Z,95.57
2018-10-21T02:05:01.700Z,96.86
2018-10-21T02:15:02.058Z,96.34
2018-10-21T02:26:01.797Z,95.30
2018-10-21T02:31:01.979Z,95.30
2018-10-21T02:36:01.655Z,96.30
2018-10-21T02:41:01.735Z,96.30
2018-10-21T02:46:01.658Z,96.07
2018-10-21T02:56:02.694Z,95.70
2018-10-21T03:01:02.900Z,95.70
2018-10-21T03:16:01.814Z,96.51
2018-10-21T03:31:01.754Z,96.36
2018-10-21T03:41:01.931Z,98.41
2018-10-21T03:46:02.137Z,98.73
2018-10-21T03:51:01.730Z,98.73
2018-10-21T03:56:01.716Z,97.67
2018-10-21T04:01:01.800Z,97.67
2018-10-21T04:11:01.739Z,96.94
2018-10-21T04:21:01.922Z,97.49
2018-10-21T04:26:01.668Z,98.84
2018-10-21T04:31:02.623Z,98.84
2018-10-21T04:36:01.677Z,99.35
2018-10-21T04:41:01.737Z,99.35
2018-10-21T04:46:02.056Z,99.25
2018-10-21T04:56:01.797Z,99.22
2018-10-21T05:11:01.901Z,98.75
2018-10-21T05:26:01.816Z,98.89
2018-10-21T05:36:01.922Z,100.00
2018-10-21T05:46:02.135Z,99.98
2018-10-21T05:51:01.834Z,99.98
2018-10-21T05:56:02.533Z,100.00
2018-10-21T06:01:01.892Z,100.00
2018-10-21T06:06:01.882Z,100.00
2018-10-21T06:22:02.112Z,100.00
2018-10-21T06:32:02.017Z,100.00
2018-10-21T06:42:01.842Z,100.00
2018-10-21T06:47:01.859Z,100.00
2018-10-21T06:57:03.070Z,100.00
2018-10-21T07:07:01.859Z,100.00
2018-10-21T07:17:01.803Z,100.00
2018-10-21T07:22:02.250Z,100.00
2018-10-21T07:27:01.819Z,100.00
2018-10-21T07:37:01.892Z,100.00
2018-10-21T07:42:02.077Z,100.00
2018-10-21T07:52:02.106Z,100.00
2018-10-21T07:57:01.927Z,100.00
2018-10-21T08:07:01.678Z,100.00
2018-10-21T08:12:01.676Z,100.00
2018-10-21T08:22:01.929Z,100.00
2018-10-21T08:32:01.606Z,100.00
2018-10-21T08:37:01.618Z,100.00
2018-10-21T08:47:01.624Z,100.00
2018-10-21T08:52:01.964Z,100.00
2018-10-21T08:57:01.608Z,100.00
2018-10-21T09:02:01.592Z,100.00
2018-10-21T09:07:01.976Z,100.00
2018-10-21T09:12:01.601Z,100.00
2018-10-21T09:17:01.694Z,100.00
2018-10-21T09:27:01.594Z,100.00
2018-10-21T09:42:01.965Z,100.00
2018-10-21T09:47:01.611Z,100.00
2018-10-21T09:52:01.826Z,100.00
2018-10-21T09:57:01.444Z,100.00
2018-10-21T10:02:01.704Z,100.00
2018-10-21T10:07:02.090Z,100.00
2018-10-21T10:12:01.752Z,100.00
2018-10-21T10:17:07.215Z,100.00
2018-10-21T10:22:02.092Z,100.00
2018-10-21T10:27:01.677Z,100.00
2018-10-21T10:32:01.603Z,100.00
2018-10-21T10:37:01.818Z,100.00
2018-10-21T10:42:02.335Z,100.00
2018-10-21T10:52:02.108Z,99.99
2018-10-21T10:57:01.822Z,99.49
2018-10-21T11:12:01.833Z,99.55
2018-10-21T11:27:01.619Z,100.00
2018-10-21T11:42:01.610Z,99.96
2018-10-21T11:52:02.264Z,99.72
2018-10-21T11:57:01.829Z,99.34
2018-10-21T12:12:01.891Z,99.21
2018-10-21T12:27:01.712Z,97.90
2018-10-21T12:37:07.023Z,96.75
2018-10-21T12:52:01.864Z,97.14
2018-10-21T13:07:01.881Z,96.30
2018-10-21T13:12:01.717Z,96.30
2018-10-21T13:27:01.836Z,96.02
2018-10-21T13:37:02.197Z,95.79
2018-10-21T13:52:03.154Z,95.93
2018-10-21T13:57:01.872Z,95.94
2018-10-21T14:12:01.957Z,95.84
2018-10-21T14:22:02.092Z,95.30
2018-10-21T14:32:01.884Z,95.85
2018-10-21T14:47:01.835Z,95.40
2018-10-21T15:02:02.215Z,95.51
2018-10-21T15:17:01.870Z,95.23
2018-10-21T15:22:02.385Z,95.23
2018-10-21T15:37:01.591Z,95.47
2018-10-21T15:52:02.265Z,95.55
2018-10-21T15:57:01.611Z,95.66
2018-10-21T16:12:01.878Z,95.79
2018-10-21T16:27:04.112Z,96.07
2018-10-21T16:42:02.704Z,95.87
2018-10-21T16:52:01.639Z,96.22
2018-10-21T17:07:03.509Z,96.22
2018-10-21T17:22:02.168Z,95.88
2018-10-21T17:32:01.769Z,95.96
2018-10-21T17:37:07.319Z,96.17
2018-10-21T17:47:01.786Z,96.60
2018-10-21T17:52:02.976Z,96.60
2018-10-21T18:02:01.764Z,96.55
2018-10-21T18:07:06.959Z,96.30
2018-10-21T18:22:01.931Z,96.59
2018-10-21T18:27:01.668Z,96.03
2018-10-21T18:42:01.797Z,96.21
2018-10-21T18:57:01.816Z,95.23
2018-10-21T19:12:01.806Z,94.60
2018-10-21T19:17:01.676Z,93.54
2018-10-21T19:32:01.725Z,92.12
2018-10-21T19:47:01.740Z,90.90
2018-10-21T20:02:01.826Z,90.43
2018-10-21T20:12:02.155Z,89.83
2018-10-21T20:27:01.796Z,90.40
2018-10-21T20:42:01.933Z,91.02
2018-10-21T20:57:01.796Z,91.40
2018-10-21T21:02:01.795Z,91.40
2018-10-21T21:17:01.772Z,91.01
2018-10-21T21:22:01.841Z,91.01
2018-10-21T21:37:01.736Z,91.76
2018-10-21T21:52:01.965Z,91.75
2018-10-21T21:57:01.640Z,92.54
2018-10-21T22:07:01.826Z,93.72
2018-10-21T22:22:02.011Z,94.28
2018-10-21T22:37:01.808Z,93.56
2018-10-21T22:42:01.936Z,93.56
2018-10-21T22:57:03.869Z,96.72
2018-10-21T23:07:02.087Z,99.20
2018-10-21T23:12:01.856Z,99.20
2018-10-21T23:17:01.703Z,100.00
2018-10-21T23:27:01.949Z,100.00
2018-10-21T23:37:01.793Z,100.00
2018-10-21T23:52:01.931Z,100.00
